Terminal Aerodrome Forecast
Issued by NWS

Current Version | Previous Version | Graphics & Text | Print | Product List | Glossary On
Versions: 1 2 3 4 5 6 7 8 9 10 11 12 13 14 15 16 17 18 19 20 21 22 23 24
000
FTUS41 KRLX 161500 AAA
TAFCKB
TAF AMD
KCKB 161507Z 1615/1712 12008G15KT 6SM SHRA OVC040
      TEMPO 1615/1616 4SM -SHRA BKN030
     FM170600 18006KT 6SM SHRA OVC040
     FM170900 19004KT P6SM BKN008
     FM171100 21004KT P6SM BKN025=

USA.gov is the U.S. government's official web portal to all federal, state and local government web resources and services.